KBIV

West Michigan Regional Airport

Holland, Michigan, USA
METAR KBIV 181453Z AUTO 19006KT 10SM CLR 07/M01 A3052 RMK AO2 SLP342 T00671006 51006
Observed Flight Rules
Oct-18 @ 14:53 UTC (an hour ago) Visual Flight Rules
Wind Visibility Clouds
190° at 6 knots 10 miles
  • Clear skies
Temperatures Readings
Current 7°C / 45°F
Dewpoint -1°C / 30°F
Humidity 57%
Altimeter 30.52" Hg
Pressure 1034.2 hPa
Elevation 208
METAR KBIV 181453Z AUTO 19006KT 10SM CLR 07/M01 A3052 RMK AO2 SLP342 T00671006 51006
Observed Flight Rules
Oct-18 @ 14:53 UTC
(an hour ago)
VFR
Wind Visibility
190° at 6 knots 10 miles
Clouds
  • Clear skies
Temperature Dewpoint
7°C / 45°F -1°C / 30°F
Humidity Altimeter Pressure
57% 30.52" Hg 1034.2 hPa